Time;durP1;ratioP1;P1;durP2;ratioP2;P2;SDS_P1;SDS_P2;PMS_P1;PMS_P2;Temp;Humidity;BMP_temperature;BMP_pressure;BME280_temperature;BME280_humidity;BME280_pressure;Samples;Min_cycle;Max_cycle;Signal;HPM_P1;HPM_P2
2023/04/18 00:01:06;;;;;;;35.97;18.00;;;16.70;57.40;;;;;;5090338;28;20292;-89
2023/04/18 00:03:36;;;;;;;41.23;17.00;;;16.70;57.40;;;;;;5094236;28;20213;-89
2023/04/18 00:06:04;;;;;;;47.30;18.20;;;16.70;57.40;;;;;;5094755;28;20239;-87
2023/04/18 00:08:33;;;;;;;34.43;17.30;;;16.70;57.50;;;;;;5092151;28;20621;-90
2023/04/18 00:11:03;;;;;;;36.00;17.00;;;16.80;57.50;;;;;;5090769;28;20280;-87
2023/04/18 00:13:32;;;;;;;38.77;17.40;;;16.70;57.40;;;;;;5093345;28;20288;-87
2023/04/18 00:16:03;;;;;;;31.17;17.27;;;16.60;57.30;;;;;;5090867;28;20214;-88
2023/04/18 00:18:32;;;;;;;33.67;16.93;;;16.70;57.50;;;;;;5093651;28;20640;-89
2023/04/18 00:20:59;;;;;;;45.17;17.50;;;16.60;57.40;;;;;;5093472;28;20208;-87
2023/04/18 00:23:27;;;;;;;32.93;15.23;;;16.60;57.40;;;;;;5092408;28;20195;-88
2023/04/18 00:25:53;;;;;;;37.00;16.73;;;16.60;57.30;;;;;;5090976;28;20200;-87
2023/04/18 00:28:20;;;;;;;42.40;16.77;;;16.60;57.40;;;;;;5091268;28;20191;-88
2023/04/18 00:30:49;;;;;;;36.87;16.27;;;16.60;58.00;;;;;;5091151;28;20217;-87
2023/04/18 00:33:17;;;;;;;34.63;15.57;;;16.60;57.40;;;;;;5090358;28;20223;-91
2023/04/18 00:35:48;;;;;;;28.93;16.10;;;16.60;57.40;;;;;;5092387;28;20211;-88
2023/04/18 00:38:16;;;;;;;49.43;17.43;;;16.60;57.40;;;;;;5099555;28;20205;-85
2023/04/18 00:40:43;;;;;;;36.80;15.63;;;16.60;57.40;;;;;;5106822;28;20196;-86
2023/04/18 00:43:12;;;;;;;29.80;15.07;;;16.50;57.30;;;;;;5117273;28;20269;-86
2023/04/18 00:45:39;;;;;;;40.87;16.00;;;16.50;57.30;;;;;;5107146;28;20533;-88
2023/04/18 00:48:08;;;;;;;41.20;16.30;;;16.50;57.30;;;;;;5099270;28;20218;-90
2023/04/18 00:50:40;;;;;;;57.63;16.90;;;16.50;57.30;;;;;;5095180;28;20220;-86
2023/04/18 00:53:09;;;;;;;46.97;16.30;;;16.50;57.30;;;;;;5110060;28;20652;-86
2023/04/18 00:55:38;;;;;;;39.17;15.40;;;16.50;57.30;;;;;;5113739;28;20212;-86
2023/04/18 00:58:06;;;;;;;42.10;15.67;;;16.50;57.30;;;;;;5115220;28;20236;-86
2023/04/18 01:00:34;;;;;;;40.00;14.80;;;16.50;57.30;;;;;;5113898;28;20280;-86
2023/04/18 01:03:01;;;;;;;37.43;14.93;;;16.40;57.30;;;;;;5114806;28;20598;-87
2023/04/18 01:05:33;;;;;;;64.00;17.07;;;16.50;57.40;;;;;;5112492;28;20204;-86
2023/04/18 01:08:09;;;;;;;49.30;15.93;;;16.40;57.30;;;;;;5114908;28;20236;-87
2023/04/18 01:10:37;;;;;;;41.77;15.13;;;16.40;57.30;;;;;;5111934;28;20275;-86
2023/04/18 01:13:14;;;;;;;38.60;14.57;;;16.50;57.40;;;;;;5115691;28;20188;-86
2023/04/18 01:15:46;;;;;;;34.70;14.63;;;16.40;57.40;;;;;;5112877;28;20208;-86
2023/04/18 01:18:15;;;;;;;48.33;15.37;;;16.40;57.90;;;;;;5115285;28;20196;-86
2023/04/18 01:20:46;;;;;;;43.40;15.37;;;16.40;57.30;;;;;;5114832;28;20204;-87
2023/04/18 01:23:16;;;;;;;39.67;14.13;;;16.40;58.00;;;;;;5113718;27;20204;-86
2023/04/18 01:25:48;;;;;;;42.77;15.03;;;16.40;58.00;;;;;;5112508;28;20296;-86
2023/04/18 01:28:15;;;;;;;38.33;13.33;;;16.40;57.40;;;;;;5108990;28;20224;-86
2023/04/18 01:30:43;;;;;;;35.67;14.30;;;16.40;57.40;;;;;;5096410;28;20201;-86
2023/04/18 01:33:10;;;;;;;45.33;16.10;;;16.30;57.30;;;;;;5113537;28;20227;-86
2023/04/18 01:35:39;;;;;;;39.63;15.07;;;16.30;57.30;;;;;;5111583;28;20295;-86
2023/04/18 01:38:09;;;;;;;42.93;14.40;;;16.30;57.30;;;;;;5113502;28;20198;-86
2023/04/18 01:40:37;;;;;;;42.80;14.53;;;16.30;57.30;;;;;;5113021;28;20248;-87
2023/04/18 01:43:06;;;;;;;39.20;13.50;;;16.30;57.40;;;;;;5113749;28;20218;-87
2023/04/18 01:45:38;;;;;;;32.20;12.77;;;16.30;57.30;;;;;;5112702;28;20213;-87
2023/04/18 01:48:06;;;;;;;42.30;13.53;;;16.30;57.30;;;;;;5094220;28;20359;-87
2023/04/18 01:50:33;;;;;;;36.13;13.10;;;16.20;57.30;;;;;;5096353;28;20298;-87
2023/04/18 01:53:00;;;;;;;38.00;13.70;;;16.30;57.40;;;;;;5105109;28;20200;-87
2023/04/18 01:55:30;;;;;;;44.13;13.17;;;16.20;57.30;;;;;;5117462;28;20226;-87
2023/04/18 01:57:57;;;;;;;23.60;12.67;;;16.20;57.30;;;;;;5113612;28;20225;-87
2023/04/18 02:00:27;;;;;;;45.47;13.63;;;16.20;57.30;;;;;;5111916;28;20198;-87
2023/04/18 02:03:03;;;;;;;39.17;12.70;;;16.20;57.30;;;;;;5107714;28;20252;-87
2023/04/18 02:05:31;;;;;;;45.73;13.67;;;16.20;57.30;;;;;;5109389;28;20205;-87
2023/04/18 02:07:58;;;;;;;27.27;12.87;;;16.20;57.30;;;;;;5132127;28;20302;-88
2023/04/18 02:10:34;;;;;;;29.33;12.53;;;16.10;57.20;;;;;;5134892;28;20203;-87
2023/04/18 02:13:03;;;;;;;27.63;12.40;;;16.10;57.30;;;;;;5137880;28;20214;-90
2023/04/18 02:15:37;;;;;;;30.60;12.40;;;16.10;57.30;;;;;;5136113;28;20180;-92
2023/04/18 02:18:08;;;;;;;37.03;13.70;;;16.10;57.30;;;;;;5127741;28;20217;-87
2023/04/18 02:20:37;;;;;;;32.93;12.23;;;16.10;57.30;;;;;;5107410;28;20206;-87
2023/04/18 02:23:07;;;;;;;32.80;12.50;;;16.10;57.30;;;;;;5112334;28;20216;-86
2023/04/18 02:25:44;;;;;;;30.63;13.00;;;16.10;57.30;;;;;;5114536;28;20204;-88
2023/04/18 02:28:11;;;;;;;39.00;12.67;;;16.10;57.50;;;;;;5114474;28;20786;-86
2023/04/18 02:30:40;;;;;;;39.93;12.97;;;16.00;57.20;;;;;;5113724;28;20198;-87
2023/04/18 02:33:12;;;;;;;37.23;12.93;;;16.00;57.30;;;;;;5115353;28;20697;-87
2023/04/18 02:35:40;;;;;;;32.33;12.67;;;16.00;57.30;;;;;;5114895;28;20242;-87
2023/04/18 02:38:18;;;;;;;40.47;13.63;;;16.00;57.30;;;;;;5096837;28;20244;-87
2023/04/18 02:40:46;;;;;;;46.93;13.73;;;16.00;57.30;;;;;;5107778;28;20209;-86
2023/04/18 02:43:13;;;;;;;49.33;14.30;;;16.10;57.40;;;;;;5095444;28;20650;-87
2023/04/18 02:45:42;;;;;;;37.47;12.67;;;16.00;57.30;;;;;;5100676;28;20204;-87
2023/04/18 02:48:15;;;;;;;43.30;13.87;;;16.00;57.30;;;;;;5092551;28;20307;-88
2023/04/18 02:50:42;;;;;;;42.47;13.93;;;16.00;57.30;;;;;;5047983;28;1301586;-87
2023/04/18 02:53:10;;;;;;;50.07;13.60;;;16.00;57.30;;;;;;5111526;28;20208;-86
2023/04/18 02:55:37;;;;;;;52.33;14.63;;;16.00;57.30;;;;;;5113509;28;20198;-89
2023/04/18 02:58:05;;;;;;;45.20;13.70;;;15.90;57.30;;;;;;5115770;28;20201;-86
2023/04/18 03:00:32;;;;;;;35.87;12.53;;;15.90;57.30;;;;;;5114923;28;20202;-87
2023/04/18 03:03:00;;;;;;;38.47;13.43;;;15.80;57.20;;;;;;5115433;28;20182;-87
2023/04/18 03:05:28;;;;;;;57.27;15.60;;;15.90;57.30;;;;;;5113681;28;20206;-86
2023/04/18 03:07:55;;;;;;;38.70;14.17;;;15.90;57.30;;;;;;5115371;28;20215;-87
2023/04/18 03:10:23;;;;;;;34.87;13.17;;;15.90;57.30;;;;;;5119715;28;20197;-90
2023/04/18 03:12:52;;;;;;;36.23;13.47;;;15.90;57.30;;;;;;5120693;27;20206;-88
2023/04/18 03:15:19;;;;;;;44.87;14.07;;;16.00;57.40;;;;;;5118570;28;20187;-85
2023/04/18 03:17:50;;;;;;;43.77;15.07;;;15.80;57.30;;;;;;5102241;28;20297;-88
2023/04/18 03:20:19;;;;;;;34.23;14.83;;;15.80;57.30;;;;;;5113412;28;20204;-89
2023/04/18 03:22:52;;;;;;;36.77;13.50;;;15.80;57.30;;;;;;5123420;28;20243;-87
2023/04/18 03:25:22;;;;;;;34.60;13.23;;;15.80;57.30;;;;;;5120843;28;20928;-86
2023/04/18 03:27:55;;;;;;;30.63;13.73;;;15.80;57.30;;;;;;5110578;28;20213;-87
2023/04/18 03:30:26;;;;;;;35.20;12.90;;;15.80;57.30;;;;;;5103120;28;20236;-87
2023/04/18 03:32:54;;;;;;;34.27;14.20;;;15.80;57.30;;;;;;5105431;28;20580;-86
2023/04/18 03:35:24;;;;;;;47.77;14.97;;;15.80;57.30;;;;;;5123292;28;20285;-90
2023/04/18 03:37:50;;;;;;;40.90;15.20;;;15.80;57.30;;;;;;5103692;28;20199;-87
2023/04/18 03:40:22;;;;;;;30.43;12.90;;;15.70;57.30;;;;;;5103421;28;20207;-91
2023/04/18 03:42:49;;;;;;;36.40;13.73;;;15.70;57.20;;;;;;5105979;28;20207;-89
2023/04/18 03:45:20;;;;;;;40.83;14.37;;;15.80;57.90;;;;;;5124209;28;20271;-87
2023/04/18 03:47:46;;;;;;;37.83;14.43;;;15.70;57.30;;;;;;5103012;28;20288;-90
2023/04/18 03:50:14;;;;;;;39.40;14.23;;;15.70;57.40;;;;;;5108301;28;20407;-89
2023/04/18 03:52:53;;;;;;;31.23;13.33;;;15.70;57.30;;;;;;5110427;28;20221;-87
2023/04/18 03:55:21;;;;;;;37.63;13.67;;;15.60;57.20;;;;;;5106354;28;20213;-87
2023/04/18 03:57:49;;;;;;;29.30;13.77;;;15.70;57.30;;;;;;5124580;28;20223;-96
2023/04/18 04:00:17;;;;;;;36.77;13.23;;;15.70;57.30;;;;;;5122491;28;20254;-88
2023/04/18 04:02:50;;;;;;;30.53;13.80;;;15.70;57.30;;;;;;5115641;28;20203;-90
2023/04/18 04:05:38;;;;;;;35.17;14.57;;;15.60;57.30;;;;;;5115485;28;20207;-88
2023/04/18 04:08:09;;;;;;;26.33;13.20;;;15.60;57.30;;;;;;5132304;28;20241;-88
2023/04/18 04:10:46;;;;;;;41.10;14.17;;;15.70;57.30;;;;;;5134130;28;20250;-90
2023/04/18 04:13:31;;;;;;;28.10;13.67;;;15.60;57.30;;;;;;5117670;28;20246;-86
2023/04/18 04:16:04;;;;;;;42.07;15.07;;;15.60;57.30;;;;;;5115600;28;20244;-86
2023/04/18 04:18:34;;;;;;;31.03;13.80;;;15.60;57.30;;;;;;5116066;28;20226;-87
2023/04/18 04:21:06;;;;;;;39.87;14.50;;;15.60;57.30;;;;;;5115339;28;20243;-87
2023/04/18 04:23:37;;;;;;;26.13;12.70;;;15.60;57.30;;;;;;5115468;28;20202;-88
2023/04/18 04:26:07;;;;;;;33.43;13.90;;;15.60;57.30;;;;;;5116469;28;20188;-87
2023/04/18 04:28:35;;;;;;;37.67;13.77;;;15.60;57.30;;;;;;5113727;28;20219;-90
2023/04/18 04:31:09;;;;;;;33.40;13.87;;;15.50;57.30;;;;;;5110433;28;20237;-96
2023/04/18 04:33:37;;;;;;;35.67;14.17;;;15.60;57.30;;;;;;5111715;28;20283;-94
2023/04/18 04:36:06;;;;;;;34.93;14.37;;;15.50;57.30;;;;;;5112781;28;20217;-91
2023/04/18 04:38:37;;;;;;;34.67;13.53;;;15.50;57.30;;;;;;5110642;28;20196;-95
2023/04/18 04:41:05;;;;;;;40.23;13.93;;;15.50;57.30;;;;;;5109935;28;20248;-87
2023/04/18 04:43:36;;;;;;;39.20;13.83;;;15.50;57.30;;;;;;5101234;28;20219;-88
2023/04/18 04:46:04;;;;;;;42.23;14.50;;;15.50;57.30;;;;;;5110583;28;20198;-88
2023/04/18 04:48:31;;;;;;;36.80;14.73;;;15.50;57.30;;;;;;5113653;28;20226;-91
2023/04/18 04:50:59;;;;;;;51.03;15.40;;;15.50;57.30;;;;;;5115804;28;20216;-88
2023/04/18 04:53:30;;;;;;;33.17;14.07;;;15.50;57.30;;;;;;5112441;28;20210;-87
2023/04/18 04:55:59;;;;;;;47.80;14.67;;;15.50;57.30;;;;;;5106075;28;20271;-87
2023/04/18 04:58:29;;;;;;;43.20;13.97;;;15.40;57.20;;;;;;5105232;28;20881;-87
2023/04/18 05:00:58;;;;;;;44.17;14.40;;;15.40;57.20;;;;;;5107573;28;20191;-87
2023/04/18 05:03:25;;;;;;;51.03;15.23;;;15.50;57.30;;;;;;5096906;28;20209;-86
2023/04/18 05:05:52;;;;;;;35.97;13.13;;;15.40;57.20;;;;;;5095218;28;20285;-86
2023/04/18 05:08:18;;;;;;;34.03;13.37;;;15.40;57.20;;;;;;5110400;28;20232;-85
2023/04/18 05:10:46;;;;;;;38.03;13.63;;;15.40;57.20;;;;;;5101184;28;20285;-86
2023/04/18 05:13:16;;;;;;;41.50;14.20;;;15.40;57.20;;;;;;5101485;28;20207;-85
2023/04/18 05:15:44;;;;;;;35.20;12.70;;;15.40;57.20;;;;;;5108417;28;20208;-86
2023/04/18 05:18:13;;;;;;;39.27;13.27;;;15.40;57.20;;;;;;5109353;28;20188;-86
2023/04/18 05:20:40;;;;;;;29.53;12.70;;;15.40;57.20;;;;;;5111135;28;20195;-85
2023/04/18 05:23:06;;;;;;;38.97;13.20;;;15.40;57.30;;;;;;5097620;28;20194;-84
2023/04/18 05:25:35;;;;;;;77.73;16.47;;;15.40;57.30;;;;;;5097292;28;20292;-88
2023/04/18 05:28:03;;;;;;;53.27;14.80;;;15.40;57.30;;;;;;5090546;28;20224;-84
2023/04/18 05:30:31;;;;;;;44.80;14.40;;;15.40;57.30;;;;;;5088221;28;20643;-84
2023/04/18 05:32:58;;;;;;;32.60;12.33;;;15.40;57.30;;;;;;5105984;28;20256;-85
2023/04/18 05:35:25;;;;;;;32.43;13.40;;;15.40;57.30;;;;;;5108311;28;20209;-84
2023/04/18 05:37:52;;;;;;;35.97;13.17;;;15.40;57.30;;;;;;5108682;28;20209;-84
2023/04/18 05:40:19;;;;;;;43.27;12.73;;;15.40;57.30;;;;;;5109270;28;20203;-84
2023/04/18 05:42:46;;;;;;;45.53;13.53;;;15.40;57.30;;;;;;5094493;28;20229;-84
2023/04/18 05:45:12;;;;;;;40.90;13.20;;;15.40;57.30;;;;;;5112123;28;20651;-85
2023/04/18 05:47:41;;;;;;;36.33;12.73;;;15.50;57.40;;;;;;5105780;28;20589;-85
2023/04/18 05:50:09;;;;;;;39.80;13.43;;;15.40;57.30;;;;;;5109552;28;20207;-89
2023/04/18 05:52:37;;;;;;;32.80;11.37;;;15.30;57.30;;;;;;5104606;28;20292;-84
2023/04/18 05:55:04;;;;;;;43.53;12.33;;;15.40;57.30;;;;;;5098087;28;20674;-84
2023/04/18 05:57:31;;;;;;;33.57;11.93;;;15.40;57.40;;;;;;5100134;28;20204;-84
2023/04/18 05:59:58;;;;;;;44.10;13.63;;;15.40;57.30;;;;;;5111521;28;20561;-85
2023/04/18 06:02:25;;;;;;;40.70;12.43;;;15.30;57.30;;;;;;5100622;28;20195;-83
2023/04/18 06:04:53;;;;;;;37.00;11.93;;;15.30;57.30;;;;;;5090640;28;20209;-84
2023/04/18 06:07:23;;;;;;;57.27;13.77;;;15.30;57.30;;;;;;5088240;28;20202;-83
2023/04/18 06:09:52;;;;;;;27.67;11.90;;;15.30;57.30;;;;;;5091695;28;20236;-90
2023/04/18 06:12:19;;;;;;;41.10;13.27;;;15.30;57.30;;;;;;5092969;28;20209;-88
2023/04/18 06:14:45;;;;;;;35.53;11.33;;;15.30;57.30;;;;;;5102017;28;20208;-84
2023/04/18 06:17:13;;;;;;;44.43;12.60;;;15.40;57.40;;;;;;5111883;28;20197;-84
2023/04/18 06:19:39;;;;;;;31.63;11.57;;;15.40;57.40;;;;;;5093074;28;20681;-84
2023/04/18 06:22:08;;;;;;;34.90;11.73;;;15.30;57.30;;;;;;5093087;28;20531;-85
2023/04/18 06:24:36;;;;;;;32.07;11.27;;;15.40;57.40;;;;;;5101426;28;20290;-85
2023/04/18 06:27:04;;;;;;;27.67;11.60;;;15.30;57.30;;;;;;5113055;28;20195;-86
2023/04/18 06:29:32;;;;;;;34.47;10.80;;;15.30;57.30;;;;;;5113625;28;20236;-84
2023/04/18 06:31:59;;;;;;;61.33;14.50;;;15.30;57.30;;;;;;5109422;28;20277;-84
2023/04/18 06:34:25;;;;;;;29.70;11.07;;;15.40;57.40;;;;;;5098865;28;20198;-84
2023/04/18 06:36:53;;;;;;;34.87;12.93;;;15.30;57.30;;;;;;5111348;28;20196;-84
2023/04/18 06:39:21;;;;;;;34.57;12.23;;;15.30;57.30;;;;;;5104640;28;20202;-84
2023/04/18 06:41:48;;;;;;;38.40;12.03;;;15.30;57.30;;;;;;5090249;28;20207;-84
2023/04/18 06:44:15;;;;;;;43.73;12.53;;;15.30;57.30;;;;;;5105518;28;20194;-84
2023/04/18 06:46:42;;;;;;;31.43;11.47;;;15.30;57.30;;;;;;5110737;28;20200;-83
2023/04/18 06:49:09;;;;;;;32.93;11.63;;;15.40;57.40;;;;;;5111158;28;20717;-84
2023/04/18 06:51:36;;;;;;;38.83;11.97;;;15.30;57.30;;;;;;5110374;28;20289;-84
2023/04/18 06:54:03;;;;;;;35.27;11.30;;;15.20;57.20;;;;;;5103841;28;20202;-82
2023/04/18 06:56:32;;;;;;;30.40;11.47;;;15.30;57.30;;;;;;5090610;28;20200;-84
2023/04/18 06:58:59;;;;;;;30.23;10.80;;;15.30;57.30;;;;;;5108765;28;20719;-85
2023/04/18 07:01:26;;;;;;;37.03;11.77;;;15.30;57.30;;;;;;5109543;28;20617;-85
2023/04/18 07:03:54;;;;;;;51.10;12.07;;;15.20;57.30;;;;;;5092100;28;20211;-85
2023/04/18 07:06:21;;;;;;;33.37;10.70;;;15.30;57.30;;;;;;5092000;28;20550;-85
2023/04/18 07:08:48;;;;;;;28.43;10.17;;;15.30;57.50;;;;;;5096878;28;20230;-85
2023/04/18 07:11:17;;;;;;;32.67;10.10;;;15.30;57.30;;;;;;5107698;28;20585;-85
2023/04/18 07:13:46;;;;;;;38.90;10.63;;;15.20;57.30;;;;;;5106384;28;20616;-88
2023/04/18 07:16:13;;;;;;;31.97;10.67;;;15.20;57.30;;;;;;5098955;28;20212;-85
2023/04/18 07:18:39;;;;;;;29.00;9.93;;;15.20;57.30;;;;;;5104506;28;20206;-85
2023/04/18 07:21:08;;;;;;;29.47;10.10;;;15.20;57.30;;;;;;5090146;28;20198;-85
2023/04/18 07:23:35;;;;;;;42.03;11.27;;;15.30;57.50;;;;;;5089642;28;20229;-85
2023/04/18 07:26:04;;;;;;;34.00;9.47;;;15.20;57.30;;;;;;5105740;28;20233;-89
2023/04/18 07:28:32;;;;;;;41.90;10.50;;;15.30;57.40;;;;;;5102457;28;20233;-88
2023/04/18 07:31:01;;;;;;;28.90;9.73;;;15.20;57.40;;;;;;5092029;28;20202;-88
2023/04/18 07:33:32;;;;;;;60.77;11.93;;;15.20;57.40;;;;;;5105013;28;20269;-85
2023/04/18 07:36:00;;;;;;;38.83;9.90;;;15.40;57.50;;;;;;5097378;28;20287;-85
2023/04/18 07:38:27;;;;;;;31.43;9.93;;;15.30;57.50;;;;;;5096312;28;20203;-86
2023/04/18 07:40:57;;;;;;;28.83;9.33;;;15.30;57.50;;;;;;5097858;28;20207;-85
2023/04/18 07:43:24;;;;;;;29.97;9.03;;;15.30;57.50;;;;;;5092558;28;20644;-87
2023/04/18 07:45:51;;;;;;;34.70;9.73;;;15.30;57.50;;;;;;5090736;28;20201;-86
2023/04/18 07:48:21;;;;;;;52.17;11.03;;;15.40;58.20;;;;;;5102354;28;20230;-86
2023/04/18 07:50:48;;;;;;;28.90;9.47;;;15.30;57.50;;;;;;5094794;28;20255;-86
2023/04/18 07:53:15;;;;;;;48.67;10.63;;;15.40;57.60;;;;;;5091473;28;20282;-86
2023/04/18 07:55:42;;;;;;;35.23;9.80;;;15.40;57.60;;;;;;5096632;28;20284;-86
2023/04/18 07:58:09;;;;;;;26.23;8.57;;;15.40;57.60;;;;;;5089067;28;20224;-87
2023/04/18 08:00:36;;;;;;;35.40;9.57;;;15.40;57.50;;;;;;5098917;28;20250;-87
2023/04/18 08:03:03;;;;;;;23.47;9.37;;;15.30;57.50;;;;;;5109366;28;20190;-89
2023/04/18 08:05:31;;;;;;;35.17;10.03;;;15.30;57.50;;;;;;5104862;28;20198;-87
2023/04/18 08:07:58;;;;;;;31.43;8.67;;;15.30;57.50;;;;;;5102840;28;20212;-86
2023/04/18 08:10:26;;;;;;;35.40;9.73;;;15.40;57.50;;;;;;5091489;28;20236;-87
2023/04/18 08:12:54;;;;;;;43.43;11.10;;;15.40;57.60;;;;;;5100510;28;20206;-85
2023/04/18 08:15:21;;;;;;;62.07;12.43;;;15.40;57.50;;;;;;5089104;28;20207;-86
2023/04/18 08:17:48;;;;;;;31.87;9.67;;;15.40;57.50;;;;;;5099143;28;20550;-86
2023/04/18 08:20:16;;;;;;;34.87;9.87;;;15.40;57.50;;;;;;5108646;28;20247;-86
2023/04/18 08:22:44;;;;;;;27.87;9.23;;;15.40;57.50;;;;;;5093839;28;20762;-87
2023/04/18 08:25:11;;;;;;;25.33;8.67;;;15.40;57.50;;;;;;5091661;28;20311;-87
2023/04/18 08:27:38;;;;;;;46.00;9.93;;;15.40;57.50;;;;;;5091111;28;20206;-86
2023/04/18 08:30:07;;;;;;;44.13;9.80;;;15.40;57.50;;;;;;5101712;28;20965;-84
2023/04/18 08:32:35;;;;;;;31.03;8.57;;;15.40;57.50;;;;;;5103980;28;20587;-89
2023/04/18 08:35:03;;;;;;;34.70;9.63;;;15.40;57.50;;;;;;5108287;28;20209;-86
2023/04/18 08:37:34;;;;;;;24.23;8.60;;;15.50;57.60;;;;;;5089284;28;20208;-87
2023/04/18 08:40:04;;;;;;;32.47;9.03;;;15.40;57.50;;;;;;5089605;28;20277;-85
2023/04/18 08:42:31;;;;;;;44.43;10.57;;;15.40;57.50;;;;;;5095556;28;20204;-89
2023/04/18 08:44:58;;;;;;;27.77;9.23;;;15.40;57.50;;;;;;5102870;28;20644;-89
2023/04/18 08:47:25;;;;;;;32.73;10.63;;;15.50;57.70;;;;;;5105675;28;20671;-86
2023/04/18 08:49:53;;;;;;;33.93;10.60;;;15.50;57.60;;;;;;5099999;28;20693;-85
2023/04/18 08:52:21;;;;;;;38.37;11.57;;;15.50;57.60;;;;;;5087720;28;20285;-85
2023/04/18 08:54:50;;;;;;;60.90;14.00;;;15.50;57.60;;;;;;5103926;28;20203;-88
2023/04/18 08:57:25;;;;;;;36.70;12.03;;;15.50;57.60;;;;;;5102817;27;20244;-86
2023/04/18 08:59:52;;;;;;;42.57;11.50;;;15.50;58.20;;;;;;5108458;28;20197;-85
2023/04/18 09:02:22;;;;;;;33.73;11.13;;;15.60;58.00;;;;;;5108646;28;20223;-86
2023/04/18 09:04:51;;;;;;;35.87;12.03;;;15.50;57.60;;;;;;5090870;28;20671;-87
2023/04/18 09:07:19;;;;;;;33.27;11.63;;;15.50;57.60;;;;;;5098581;28;20225;-88
2023/04/18 09:09:48;;;;;;;34.80;12.37;;;15.50;57.60;;;;;;5105941;28;20221;-86
2023/04/18 09:12:18;;;;;;;41.80;11.50;;;15.60;57.70;;;;;;5108388;28;20275;-85
2023/04/18 09:14:49;;;;;;;40.13;11.63;;;15.60;57.70;;;;;;5108144;28;20260;-86
2023/04/18 09:17:31;;;;;;;42.57;12.20;;;15.60;57.60;;;;;;5111825;28;20208;-85
2023/04/18 09:19:59;;;;;;;41.30;12.90;;;15.60;57.60;;;;;;5112108;28;20191;-86
2023/04/18 09:22:41;;;;;;;37.07;11.70;;;15.60;57.70;;;;;;5111940;28;20200;-85
2023/04/18 09:25:09;;;;;;;35.27;11.93;;;15.60;57.70;;;;;;5093962;28;20256;-86
2023/04/18 09:27:36;;;;;;;41.27;12.43;;;15.60;57.60;;;;;;5093176;28;20201;-86
2023/04/18 09:30:05;;;;;;;31.53;11.30;;;15.60;57.70;;;;;;5098375;28;21051;-87
2023/04/18 09:32:32;;;;;;;68.93;13.90;;;15.60;57.60;;;;;;5093466;28;20252;-86
2023/04/18 09:35:02;;;;;;;53.00;12.83;;;15.60;57.70;;;;;;5090778;28;20216;-86
2023/04/18 09:37:29;;;;;;;36.40;12.00;;;15.70;57.70;;;;;;5096755;28;20707;-88
2023/04/18 09:39:56;;;;;;;33.40;11.80;;;15.70;57.70;;;;;;5096635;28;20193;-87
2023/04/18 09:42:23;;;;;;;31.63;11.23;;;15.70;57.70;;;;;;5098739;28;20313;-87
2023/04/18 09:45:11;;;;;;;38.53;12.43;;;15.70;57.70;;;;;;5102029;28;20578;-87
2023/04/18 09:47:39;;;;;;;51.87;13.20;;;15.70;57.70;;;;;;5092705;28;20640;-88
2023/04/18 09:50:08;;;;;;;33.93;11.50;;;15.70;57.70;;;;;;5092078;28;20228;-86
2023/04/18 09:52:36;;;;;;;29.77;11.77;;;15.70;57.70;;;;;;5101807;28;20195;-85
2023/04/18 09:55:05;;;;;;;63.23;13.93;;;15.80;57.80;;;;;;5100907;28;20210;-87
2023/04/18 09:57:34;;;;;;;32.03;11.80;;;15.80;57.80;;;;;;5100842;28;20551;-85
2023/04/18 10:00:12;;;;;;;36.33;11.87;;;15.80;57.80;;;;;;5111667;27;20190;-85
2023/04/18 10:02:49;;;;;;;41.70;12.10;;;15.80;57.80;;;;;;5092661;27;20251;-87
2023/04/18 10:05:17;;;;;;;34.07;11.40;;;15.80;57.80;;;;;;5095923;28;20679;-85
2023/04/18 10:07:46;;;;;;;42.03;13.23;;;15.90;57.80;;;;;;5095328;28;20659;-85
2023/04/18 10:10:13;;;;;;;42.73;13.00;;;15.90;57.80;;;;;;5098132;28;20305;-87
2023/04/18 10:12:41;;;;;;;40.53;11.90;;;15.90;57.80;;;;;;5105616;28;20202;-91
2023/04/18 10:15:09;;;;;;;49.33;12.07;;;15.90;57.80;;;;;;5103433;28;20227;-86
2023/04/18 10:17:43;;;;;;;39.53;12.67;;;15.90;57.80;;;;;;5092344;28;20207;-85
2023/04/18 10:20:19;;;;;;;35.97;11.83;;;15.90;57.80;;;;;;5092779;28;20230;-85
2023/04/18 10:22:47;;;;;;;36.30;12.17;;;16.00;57.90;;;;;;5098488;28;20208;-86
2023/04/18 10:25:35;;;;;;;26.20;11.30;;;16.00;57.80;;;;;;5109573;28;20206;-86
2023/04/18 10:28:02;;;;;;;26.43;13.37;;;16.00;57.80;;;;;;5100698;28;20202;-86
2023/04/18 10:30:49;;;;;;;36.20;14.20;;;16.00;57.70;;;;;;5107350;28;20217;-87
2023/04/18 10:33:25;;;;;;;43.97;13.77;;;16.00;57.70;;;;;;5093445;28;20210;-87
2023/04/18 10:36:05;;;;;;;24.10;11.43;;;16.00;57.60;;;;;;5096029;28;20253;-87
2023/04/18 10:38:34;;;;;;;39.97;13.03;;;16.00;57.70;;;;;;5099358;28;20222;-87
2023/04/18 10:41:15;;;;;;;48.17;14.17;;;16.00;57.70;;;;;;5099800;28;20206;-87
2023/04/18 10:44:11;;;;;;;32.00;13.03;;;16.10;57.90;;;;;;5112847;28;20229;-87
2023/04/18 10:46:42;;;;;;;31.13;12.87;;;16.10;57.90;;;;;;5113721;28;20650;-87
2023/04/18 10:49:13;;;;;;;32.97;12.40;;;16.00;57.80;;;;;;5120870;27;20565;-90
2023/04/18 10:51:43;;;;;;;29.47;12.80;;;16.10;57.90;;;;;;5092735;28;20193;-86
2023/04/18 10:54:12;;;;;;;24.37;11.60;;;16.20;58.50;;;;;;5104807;28;20725;-89
2023/04/18 10:56:39;;;;;;;32.93;13.07;;;16.20;58.00;;;;;;5096495;28;20195;-86
2023/04/18 10:59:09;;;;;;;25.17;12.17;;;16.20;58.00;;;;;;5094482;28;20199;-87
2023/04/18 11:01:37;;;;;;;48.57;16.80;;;16.20;58.00;;;;;;5111040;28;20199;-91
2023/04/18 11:04:16;;;;;;;71.33;19.43;;;16.10;57.70;;;;;;5108214;28;20909;-92
2023/04/18 11:06:53;;;;;;;45.03;17.10;;;16.10;57.30;;;;;;5107779;28;20629;-94
2023/04/18 11:09:21;;;;;;;54.73;17.90;;;16.30;57.20;;;;;;5090582;28;20295;-94
2023/04/18 11:12:03;;;;;;;48.07;17.77;;;16.30;57.40;;;;;;5089888;28;20738;-93
2023/04/18 11:14:44;;;;;;;47.77;16.27;;;16.30;57.50;;;;;;5104473;28;20202;-94
2023/04/18 11:17:22;;;;;;;55.30;16.27;;;16.30;57.60;;;;;;5102274;28;20209;-94
2023/04/18 11:19:50;;;;;;;71.27;18.13;;;16.30;57.60;;;;;;5106649;28;20247;-95
2023/04/18 11:22:18;;;;;;;43.20;15.10;;;16.30;57.70;;;;;;5118101;28;20196;-94
2023/04/18 11:24:45;;;;;;;47.57;14.87;;;16.40;57.70;;;;;;5120244;28;20225;-95
2023/04/18 11:27:13;;;;;;;45.30;15.07;;;16.40;57.80;;;;;;5109090;27;20203;-96
2023/04/18 11:29:41;;;;;;;67.63;17.40;;;16.40;57.80;;;;;;5107296;27;20590;-95
2023/04/18 11:32:13;;;;;;;28.23;13.03;;;16.40;57.80;;;;;;5099515;28;20291;-95
2023/04/18 11:34:40;;;;;;;39.47;14.53;;;16.40;57.80;;;;;;5106603;28;20232;-95
2023/04/18 11:37:07;;;;;;;48.00;15.10;;;16.50;57.90;;;;;;5088007;28;20213;-95
2023/04/18 11:39:42;;;;;;;53.23;15.30;;;16.40;57.80;;;;;;5103022;28;20201;-94
2023/04/18 11:42:10;;;;;;;57.93;14.13;;;16.50;57.90;;;;;;5107404;28;20273;-94
2023/04/18 11:44:38;;;;;;;49.17;14.87;;;16.50;57.90;;;;;;5108615;28;20207;-95
2023/04/18 11:47:21;;;;;;;61.40;15.43;;;16.50;57.90;;;;;;5097798;28;20209;-95
2023/04/18 11:49:48;;;;;;;44.87;14.20;;;16.50;58.50;;;;;;5105485;28;20328;-94
2023/04/18 11:52:15;;;;;;;52.57;15.10;;;16.60;58.00;;;;;;5093259;28;20208;-95
2023/04/18 11:54:44;;;;;;;34.13;13.87;;;16.70;58.00;;;;;;5102966;28;20198;-95
2023/04/18 11:57:22;;;;;;;48.40;14.93;;;16.70;58.60;;;;;;5091862;28;20233;-96
2023/04/18 11:59:51;;;;;;;39.97;13.70;;;16.70;58.00;;;;;;5102165;28;20271;-95
2023/04/18 12:02:18;;;;;;;61.07;15.83;;;16.70;58.00;;;;;;5101898;28;20300;-92
2023/04/18 12:04:53;;;;;;;49.53;15.20;;;16.80;58.10;;;;;;5100786;28;20297;-93
2023/04/18 12:07:34;;;;;;;39.63;15.30;;;16.70;58.00;;;;;;5096008;28;20686;-94
2023/04/18 12:10:04;;;;;;;49.53;15.60;;;16.80;58.10;;;;;;5100351;28;20637;-94
2023/04/18 12:12:32;;;;;;;48.67;15.67;;;16.80;58.10;;;;;;5089414;28;20199;-94
2023/04/18 12:15:01;;;;;;;54.57;15.70;;;16.80;58.10;;;;;;5105585;28;20215;-94
2023/04/18 12:17:30;;;;;;;43.57;14.53;;;16.80;58.10;;;;;;5109618;28;20290;-93
2023/04/18 12:20:01;;;;;;;45.77;15.20;;;16.90;58.20;;;;;;5108819;28;20296;-93
2023/04/18 12:22:42;;;;;;;36.90;14.20;;;16.90;58.20;;;;;;5105862;28;20291;-93
2023/04/18 12:25:40;;;;;;;;;;;;;;;;;;;;;
2023/04/18 12:28:15;;;;;;;55.47;16.10;;;17.00;58.30;;;;;;5093017;28;20192;-93
2023/04/18 12:30:42;;;;;;;39.53;13.50;;;17.00;58.30;;;;;;5104846;28;20255;-92
2023/04/18 12:33:09;;;;;;;61.20;15.53;;;17.00;58.80;;;;;;5089768;28;20204;-93
2023/04/18 12:38:33;;;;;;;52.73;15.43;;;17.10;58.30;;;;;;5071920;22;20732;-93
2023/04/18 12:41:02;;;;;;;49.67;14.27;;;17.10;58.30;;;;;;5068328;28;20203;-93
2023/04/18 12:43:52;;;;;;;44.63;14.77;;;17.20;58.90;;;;;;5068998;28;20194;-93